createdAt,value
2023-03-01T00:01:43.456Z,-3.90
2023-03-01T00:04:11.717Z,-3.89
2023-03-01T00:06:39.890Z,-3.87
2023-03-01T00:09:08.062Z,-3.88
2023-03-01T00:11:36.337Z,-3.90
2023-03-01T00:14:07.890Z,-3.94
2023-03-01T00:16:40.830Z,-3.98
2023-03-01T00:19:14.268Z,-4.01
2023-03-01T00:21:42.543Z,-4.02
2023-03-01T00:24:12.736Z,-4.02
2023-03-01T00:26:41.240Z,-4.03
2023-03-01T00:29:09.414Z,-4.05
2023-03-01T00:31:37.589Z,-4.02
2023-03-01T00:34:07.528Z,-3.98
2023-03-01T00:36:37.979Z,-3.97
2023-03-01T00:39:11.221Z,-3.96
2023-03-01T00:41:39.904Z,-3.95
2023-03-01T00:44:08.280Z,-3.96
2023-03-01T00:46:37.725Z,-4.02
2023-03-01T00:49:06.687Z,-4.08
2023-03-01T00:51:34.868Z,-4.10
2023-03-01T00:54:03.883Z,-4.12
2023-03-01T00:56:32.728Z,-4.13
2023-03-01T00:59:02.241Z,-4.15
2023-03-01T01:01:31.692Z,-4.17
2023-03-01T01:04:06.055Z,-4.17
2023-03-01T01:06:37.165Z,-4.22
2023-03-01T01:09:07.739Z,-4.29
2023-03-01T01:11:37.547Z,-4.33
2023-03-01T01:14:05.916Z,-4.37
2023-03-01T01:16:34.536Z,-4.41
2023-03-01T01:19:03.787Z,-4.44
2023-03-01T01:21:32.468Z,-4.40
2023-03-01T01:24:00.848Z,-4.41
2023-03-01T01:26:30.990Z,-4.40
2023-03-01T01:29:00.774Z,-4.40
2023-03-01T01:31:29.841Z,-4.41
2023-03-01T01:34:00.290Z,-4.39
2023-03-01T01:36:29.147Z,-4.38
2023-03-01T01:38:58.080Z,-4.41
2023-03-01T01:41:27.578Z,-4.44
2023-03-01T01:44:17.253Z,-4.47
2023-03-01T01:46:49.456Z,-4.43
2023-03-01T01:49:37.660Z,-4.43
2023-03-01T01:52:08.617Z,-4.52
2023-03-01T01:55:16.198Z,-4.59
2023-03-01T01:57:50.305Z,-4.63
2023-03-01T02:00:30.255Z,-4.62
2023-03-01T02:03:09.088Z,-4.68
2023-03-01T02:05:55.384Z,-4.77
2023-03-01T02:08:27.741Z,-4.79
2023-03-01T02:10:57.023Z,-4.72
2023-03-01T02:13:25.218Z,-4.69
2023-03-01T02:15:53.600Z,-4.72
2023-03-01T02:18:23.602Z,-4.72
2023-03-01T02:21:02.583Z,-4.72
2023-03-01T02:23:31.114Z,-4.71
2023-03-01T02:26:15.072Z,-4.73
2023-03-01T02:28:44.762Z,-4.74
2023-03-01T02:31:35.694Z,-4.77
2023-03-01T02:34:07.726Z,-4.80
2023-03-01T02:36:38.557Z,-4.86
2023-03-01T02:39:08.481Z,-4.89
2023-03-01T02:41:39.022Z,-4.91
2023-03-01T02:44:07.481Z,-4.96
2023-03-01T02:46:44.875Z,-4.98
2023-03-01T02:49:23.489Z,-5.01
2023-03-01T02:52:44.714Z,-5.05
2023-03-01T02:55:15.816Z,-5.09
2023-03-01T02:57:46.592Z,-5.12
2023-03-01T03:00:20.699Z,-5.09
2023-03-01T03:02:53.669Z,-5.05
2023-03-01T03:05:27.474Z,-5.03
2023-03-01T03:07:59.377Z,-5.00
2023-03-01T03:10:34.163Z,-4.95
2023-03-01T03:13:08.276Z,-4.97
2023-03-01T03:15:37.164Z,-5.00
2023-03-01T03:18:10.281Z,-5.02
2023-03-01T03:20:39.038Z,-5.04
2023-03-01T03:23:07.413Z,-5.06
2023-03-01T03:25:38.974Z,-5.07
2023-03-01T03:28:11.705Z,-5.07
2023-03-01T03:30:41.696Z,-5.07
2023-03-01T03:33:13.472Z,-5.09
2023-03-01T03:35:45.395Z,-5.12
2023-03-01T03:38:18.971Z,-5.15
2023-03-01T03:40:53.880Z,-5.20
2023-03-01T03:43:24.028Z,-5.26
2023-03-01T03:45:52.654Z,-5.30
2023-03-01T03:48:21.598Z,-5.25
2023-03-01T03:50:52.295Z,-5.20
2023-03-01T03:53:21.430Z,-5.23
2023-03-01T03:55:52.865Z,-5.24
2023-03-01T03:58:23.505Z,-5.23
2023-03-01T04:00:54.342Z,-5.20
2023-03-01T04:03:23.216Z,-5.18
2023-03-01T04:05:52.011Z,-5.17
2023-03-01T04:08:25.098Z,-5.16
2023-03-01T04:10:58.084Z,-5.16
2023-03-01T04:13:26.457Z,-5.19
2023-03-01T04:15:55.449Z,-5.24
2023-03-01T04:18:26.232Z,-5.27
2023-03-01T04:20:56.583Z,-5.30
2023-03-01T04:23:25.170Z,-5.33
2023-03-01T04:25:56.335Z,-5.34
2023-03-01T04:28:37.417Z,-5.37
2023-03-01T04:31:16.841Z,-5.42
2023-03-01T04:33:52.541Z,-5.46
2023-03-01T04:36:23.766Z,-5.48
2023-03-01T04:38:53.160Z,-5.50
2023-03-01T04:41:24.462Z,-5.47
2023-03-01T04:43:52.762Z,-5.47
2023-03-01T04:46:22.647Z,-5.49
2023-03-01T04:48:51.154Z,-5.50
2023-03-01T04:51:19.715Z,-5.49
2023-03-01T04:53:48.533Z,-5.44
2023-03-01T04:56:18.929Z,-5.44
2023-03-01T04:58:47.623Z,-5.46
2023-03-01T05:01:20.940Z,-5.49
2023-03-01T05:03:51.670Z,-5.49
2023-03-01T05:06:20.435Z,-5.48
2023-03-01T05:08:49.024Z,-5.49
2023-03-01T05:11:17.201Z,-5.50
2023-03-01T05:13:45.468Z,-5.52
2023-03-01T05:16:13.748Z,-5.56
2023-03-01T05:18:42.222Z,-5.60
2023-03-01T05:21:12.980Z,-5.64
2023-03-01T05:23:41.948Z,-5.68
2023-03-01T05:26:25.835Z,-5.71
2023-03-01T05:29:00.409Z,-5.70
2023-03-01T05:31:29.180Z,-5.69
2023-03-01T05:33:57.618Z,-5.66
2023-03-01T05:36:25.851Z,-5.55
2023-03-01T05:38:54.019Z,-5.48
2023-03-01T05:41:22.394Z,-5.44
2023-03-01T05:43:50.692Z,-5.41
2023-03-01T05:46:18.981Z,-5.37
2023-03-01T05:48:48.239Z,-5.34
2023-03-01T05:51:16.520Z,-5.36
2023-03-01T05:53:44.722Z,-5.39
2023-03-01T05:56:12.860Z,-5.44
2023-03-01T05:58:40.937Z,-5.48
2023-03-01T06:01:13.586Z,-5.53
2023-03-01T06:03:42.299Z,-5.48
2023-03-01T06:06:10.474Z,-5.47
2023-03-01T06:08:38.741Z,-5.49
2023-03-01T06:11:08.243Z,-5.54
2023-03-01T06:13:37.036Z,-5.58
2023-03-01T06:16:07.459Z,-5.61
2023-03-01T06:18:35.768Z,-5.59
2023-03-01T06:21:04.625Z,-5.53
2023-03-01T06:23:33.129Z,-5.45
2023-03-01T06:26:02.095Z,-5.40
2023-03-01T06:28:30.264Z,-5.37
2023-03-01T06:30:58.482Z,-5.29
2023-03-01T06:33:26.710Z,-5.19
2023-03-01T06:35:58.190Z,-5.07
2023-03-01T06:38:26.332Z,-4.97
2023-03-01T06:40:56.325Z,-4.92
2023-03-01T06:43:25.235Z,-4.83
2023-03-01T06:45:53.512Z,-4.75
2023-03-01T06:48:21.584Z,-4.62
2023-03-01T06:50:49.849Z,-4.54
2023-03-01T06:53:18.142Z,-4.47
2023-03-01T06:55:46.309Z,-4.40
2023-03-01T06:58:14.623Z,-4.37
2023-03-01T07:00:44.184Z,-4.30
2023-03-01T07:03:12.385Z,-4.16
2023-03-01T07:05:41.443Z,-4.08
2023-03-01T07:08:09.615Z,-4.01
2023-03-01T07:10:37.787Z,-3.93
2023-03-01T07:13:08.033Z,-3.86
2023-03-01T07:15:36.186Z,-3.81
2023-03-01T07:18:04.353Z,-3.73
2023-03-01T07:20:32.433Z,-3.64
2023-03-01T07:23:00.703Z,-3.55
2023-03-01T07:25:28.971Z,-3.46
2023-03-01T07:27:57.349Z,-3.39
2023-03-01T07:30:28.530Z,-3.31
2023-03-01T07:32:58.530Z,-3.21
2023-03-01T07:35:28.202Z,-3.13
2023-03-01T07:37:56.800Z,-3.04
2023-03-01T07:40:24.871Z,-2.90
2023-03-01T07:42:59.924Z,-2.79
2023-03-01T07:45:28.818Z,-2.70
2023-03-01T07:47:57.164Z,-2.62
2023-03-01T07:50:25.645Z,-2.55
2023-03-01T07:52:54.020Z,-2.47
2023-03-01T07:55:22.199Z,-2.40
2023-03-01T07:57:50.355Z,-2.34
2023-03-01T08:00:19.046Z,-2.29
2023-03-01T08:02:47.324Z,-2.22
2023-03-01T08:05:15.906Z,-2.15
2023-03-01T08:07:43.978Z,-2.06
2023-03-01T08:10:12.574Z,-1.97
2023-03-01T08:12:41.037Z,-1.91
2023-03-01T08:15:09.938Z,-1.84
2023-03-01T08:17:38.306Z,-1.75
2023-03-01T08:20:08.287Z,-1.61
2023-03-01T08:22:36.384Z,-1.46
2023-03-01T08:25:05.272Z,-1.31
2023-03-01T08:27:33.445Z,-1.15
2023-03-01T08:30:01.728Z,-0.98
2023-03-01T08:32:30.018Z,-0.79
2023-03-01T08:34:58.474Z,-0.66
2023-03-01T08:37:26.860Z,-0.54
2023-03-01T08:39:56.147Z,-0.41
2023-03-01T08:42:24.430Z,-0.25
2023-03-01T08:44:52.598Z,-0.11
2023-03-01T08:47:20.786Z,0.09
2023-03-01T08:49:50.993Z,0.30
2023-03-01T08:52:19.162Z,0.50
2023-03-01T08:54:49.060Z,0.68
2023-03-01T08:57:17.250Z,0.85
2023-03-01T08:59:45.426Z,1.02
2023-03-01T09:02:16.680Z,1.16
2023-03-01T09:04:45.556Z,1.38
2023-03-01T09:07:13.655Z,1.64
2023-03-01T09:09:42.108Z,1.88
2023-03-01T09:12:10.792Z,2.05
2023-03-01T09:14:39.971Z,2.17
2023-03-01T09:17:08.237Z,2.35
2023-03-01T09:19:36.515Z,2.60
2023-03-01T09:22:05.850Z,2.78
2023-03-01T09:24:34.314Z,2.91
2023-03-01T09:27:02.584Z,2.99
2023-03-01T09:29:30.867Z,3.08
2023-03-01T09:31:59.514Z,3.18
2023-03-01T09:34:27.842Z,3.24
2023-03-01T09:36:56.096Z,3.32
2023-03-01T09:39:24.780Z,3.40
2023-03-01T09:42:05.730Z,3.60
2023-03-01T09:44:40.078Z,3.83
2023-03-01T09:47:17.973Z,4.00
2023-03-01T09:49:53.800Z,4.10
2023-03-01T09:52:28.043Z,4.25
2023-03-01T09:54:59.494Z,4.47
2023-03-01T09:57:48.850Z,4.64
2023-03-01T10:00:29.215Z,4.86
2023-03-01T10:03:11.309Z,5.09
2023-03-01T10:06:05.487Z,5.30
2023-03-01T10:08:42.774Z,5.46
2023-03-01T10:11:38.697Z,5.61
2023-03-01T10:14:25.310Z,5.83
2023-03-01T10:17:06.281Z,6.05
2023-03-01T10:19:37.417Z,6.36
2023-03-01T10:22:15.512Z,6.61
2023-03-01T10:24:44.411Z,6.77
2023-03-01T10:27:18.524Z,7.00
2023-03-01T10:30:12.499Z,7.38
2023-03-01T10:32:41.191Z,7.59
2023-03-01T10:35:20.537Z,7.84
2023-03-01T10:37:59.753Z,7.98
2023-03-01T10:40:28.027Z,8.10
2023-03-01T10:42:59.604Z,8.24
2023-03-01T10:45:30.651Z,8.35
2023-03-01T10:48:20.615Z,8.61
2023-03-01T10:50:51.619Z,8.91
2023-03-01T10:53:30.217Z,9.01
2023-03-01T10:56:16.730Z,9.15
2023-03-01T10:59:07.053Z,9.30
2023-03-01T11:01:36.951Z,9.21
2023-03-01T11:04:08.211Z,9.24
2023-03-01T11:06:38.434Z,9.15
2023-03-01T11:09:21.549Z,9.27
2023-03-01T11:11:57.710Z,9.36
2023-03-01T11:14:28.602Z,9.49
2023-03-01T11:17:01.842Z,9.70
2023-03-01T11:19:30.110Z,9.87
2023-03-01T11:22:22.492Z,9.92
2023-03-01T11:25:08.565Z,9.98
2023-03-01T11:27:42.260Z,10.22
2023-03-01T11:30:22.816Z,10.46
2023-03-01T11:33:09.485Z,10.67
2023-03-01T11:35:44.442Z,10.89
2023-03-01T11:38:28.834Z,10.96
2023-03-01T11:41:16.867Z,10.99
2023-03-01T11:44:02.546Z,11.21
2023-03-01T11:46:33.897Z,11.41
2023-03-01T11:49:11.550Z,11.55
2023-03-01T11:51:54.983Z,11.65
2023-03-01T11:54:32.161Z,11.77
2023-03-01T11:57:31.271Z,11.89
2023-03-01T12:00:41.729Z,11.92
2023-03-01T12:03:26.378Z,12.00
2023-03-01T12:06:07.049Z,11.96
2023-03-01T12:08:41.336Z,11.94
2023-03-01T12:11:30.328Z,11.99
2023-03-01T12:14:07.816Z,12.04
2023-03-01T12:16:48.787Z,12.13
2023-03-01T12:19:36.811Z,12.17
2023-03-01T12:22:23.837Z,12.37
2023-03-01T12:25:22.335Z,12.52
2023-03-01T12:28:02.374Z,12.59
2023-03-01T12:30:49.081Z,12.58
2023-03-01T12:33:41.830Z,12.50
2023-03-01T12:36:54.036Z,12.57
2023-03-01T12:39:28.552Z,12.55
2023-03-01T12:42:02.460Z,12.57
2023-03-01T12:45:06.680Z,12.57
2023-03-01T12:47:56.452Z,12.54
2023-03-01T12:50:29.524Z,12.48
2023-03-01T12:52:58.432Z,12.44
2023-03-01T12:55:44.278Z,12.41
2023-03-01T12:58:47.251Z,12.37
2023-03-01T13:01:58.696Z,12.30
2023-03-01T13:04:54.415Z,12.07
2023-03-01T13:07:30.980Z,12.03
2023-03-01T13:10:02.643Z,12.11
2023-03-01T13:12:54.153Z,12.08
2023-03-01T13:15:25.224Z,12.06
2023-03-01T13:17:54.388Z,12.02
2023-03-01T13:20:36.486Z,11.93
2023-03-01T13:23:10.695Z,12.03
2023-03-01T13:26:05.899Z,12.23
2023-03-01T13:28:47.243Z,12.51
2023-03-01T13:31:22.169Z,12.63
2023-03-01T13:33:53.660Z,12.62
2023-03-01T13:36:32.757Z,12.65
2023-03-01T13:39:06.392Z,12.62
2023-03-01T13:41:40.704Z,12.61
2023-03-01T13:44:28.045Z,12.61
2023-03-01T13:47:18.638Z,12.62
2023-03-01T13:50:00.560Z,12.60
2023-03-01T13:52:43.850Z,12.53
2023-03-01T13:55:14.813Z,12.71
2023-03-01T13:57:46.035Z,12.75
2023-03-01T14:00:34.796Z,12.85
2023-03-01T14:03:09.207Z,12.72
2023-03-01T14:05:38.404Z,12.56
2023-03-01T14:08:20.514Z,12.30
2023-03-01T14:11:01.062Z,12.15
2023-03-01T14:13:38.755Z,12.07
2023-03-01T14:16:44.335Z,12.19
2023-03-01T14:19:32.620Z,12.12
2023-03-01T14:22:14.234Z,12.19
2023-03-01T14:24:50.308Z,12.14
2023-03-01T14:27:19.279Z,12.19
2023-03-01T14:29:59.120Z,12.16
2023-03-01T14:32:32.580Z,12.13
2023-03-01T14:35:01.524Z,11.92
2023-03-01T14:37:35.517Z,11.70
2023-03-01T14:40:05.801Z,11.65
2023-03-01T14:42:36.685Z,11.61
2023-03-01T14:45:05.977Z,11.66
2023-03-01T14:47:36.505Z,11.72
2023-03-01T14:50:19.641Z,11.86
2023-03-01T14:52:49.958Z,11.93
2023-03-01T14:55:19.564Z,11.88
2023-03-01T14:57:52.240Z,11.89
2023-03-01T15:00:23.951Z,12.01
2023-03-01T15:02:54.127Z,11.99
2023-03-01T15:05:42.150Z,11.93
2023-03-01T15:08:21.181Z,11.86
2023-03-01T15:11:08.991Z,11.75
2023-03-01T15:13:37.489Z,11.70
2023-03-01T15:16:32.810Z,11.62
2023-03-01T15:19:07.234Z,11.52
2023-03-01T15:21:38.934Z,11.41
2023-03-01T15:24:21.889Z,11.30
2023-03-01T15:27:08.130Z,11.05
2023-03-01T15:29:41.671Z,10.73
2023-03-01T15:32:31.471Z,10.51
2023-03-01T15:35:01.072Z,10.26
2023-03-01T15:37:50.557Z,9.84
2023-03-01T15:40:32.597Z,9.36
2023-03-01T15:43:40.225Z,8.95
2023-03-01T15:46:28.583Z,8.56
2023-03-01T15:49:05.143Z,8.26
2023-03-01T15:51:38.024Z,8.04
2023-03-01T15:54:12.142Z,7.79
2023-03-01T15:56:40.411Z,7.55
2023-03-01T15:59:13.092Z,7.28
2023-03-01T16:01:42.285Z,7.07
2023-03-01T16:04:21.812Z,6.85
2023-03-01T16:06:57.553Z,6.54
2023-03-01T16:09:26.673Z,6.24
2023-03-01T16:11:55.566Z,5.95
2023-03-01T16:14:23.734Z,5.66
2023-03-01T16:16:52.224Z,5.40
2023-03-01T16:19:20.397Z,5.13
2023-03-01T16:21:49.784Z,4.85
2023-03-01T16:24:18.370Z,4.62
2023-03-01T16:26:46.857Z,4.42
2023-03-01T16:29:15.940Z,4.20
2023-03-01T16:31:44.239Z,4.00
2023-03-01T16:34:12.701Z,3.79
2023-03-01T16:36:42.274Z,3.62
2023-03-01T16:39:10.787Z,3.38
2023-03-01T16:41:38.848Z,3.22
2023-03-01T16:44:06.921Z,3.08
2023-03-01T16:46:35.073Z,2.90
2023-03-01T16:49:04.203Z,2.70
2023-03-01T16:51:33.922Z,2.51
2023-03-01T16:54:03.195Z,2.32
2023-03-01T16:56:34.156Z,2.10
2023-03-01T16:59:04.638Z,1.91
2023-03-01T17:01:36.130Z,1.71
2023-03-01T17:04:05.105Z,1.54
2023-03-01T17:06:33.677Z,1.39
2023-03-01T17:09:01.961Z,1.26
2023-03-01T17:11:30.371Z,1.12
2023-03-01T17:13:58.912Z,1.00
2023-03-01T17:16:28.007Z,0.88
2023-03-01T17:18:56.689Z,0.77
2023-03-01T17:21:25.167Z,0.65
2023-03-01T17:23:56.720Z,0.53
2023-03-01T17:26:25.404Z,0.43
2023-03-01T17:28:53.590Z,0.34
2023-03-01T17:31:22.829Z,0.30
2023-03-01T17:33:52.589Z,0.24
2023-03-01T17:36:20.766Z,0.19
2023-03-01T17:38:50.168Z,0.14
2023-03-01T17:41:19.359Z,0.09
2023-03-01T17:43:48.039Z,0.05
2023-03-01T17:46:17.142Z,-0.03
2023-03-01T17:48:45.403Z,-0.12
2023-03-01T17:51:13.579Z,-0.20
2023-03-01T17:53:41.850Z,-0.26
2023-03-01T17:56:10.328Z,-0.31
2023-03-01T17:58:39.534Z,-0.35
2023-03-01T18:01:17.478Z,-0.40
2023-03-01T18:03:47.586Z,-0.47
2023-03-01T18:06:36.507Z,-0.55
2023-03-01T18:09:05.307Z,-0.55
2023-03-01T18:11:35.489Z,-0.56
2023-03-01T18:14:04.829Z,-0.60
2023-03-01T18:16:34.511Z,-0.70
2023-03-01T18:19:03.324Z,-0.79
2023-03-01T18:21:31.850Z,-0.83
2023-03-01T18:24:00.574Z,-0.86
2023-03-01T18:26:30.025Z,-0.89
2023-03-01T18:29:01.360Z,-0.91
2023-03-01T18:31:33.532Z,-0.95
2023-03-01T18:34:02.198Z,-1.00
2023-03-01T18:36:33.174Z,-1.02
2023-03-01T18:39:03.775Z,-1.07
2023-03-01T18:41:33.282Z,-1.11
2023-03-01T18:44:02.844Z,-1.15
2023-03-01T18:46:31.635Z,-1.20
2023-03-01T18:49:00.222Z,-1.25
2023-03-01T18:51:30.440Z,-1.35
2023-03-01T18:53:59.117Z,-1.42
2023-03-01T18:56:30.035Z,-1.50
2023-03-01T18:58:59.632Z,-1.55
2023-03-01T19:01:29.672Z,-1.54
2023-03-01T19:03:58.469Z,-1.52
2023-03-01T19:06:34.581Z,-1.52
2023-03-01T19:09:03.929Z,-1.58
2023-03-01T19:11:33.824Z,-1.64
2023-03-01T19:14:03.451Z,-1.70
2023-03-01T19:16:33.517Z,-1.77
2023-03-01T19:19:04.595Z,-1.79
2023-03-01T19:21:34.264Z,-1.80
2023-03-01T19:24:02.817Z,-1.82
2023-03-01T19:26:32.105Z,-1.81
2023-03-01T19:29:01.085Z,-1.75
2023-03-01T19:31:31.073Z,-1.76
2023-03-01T19:34:11.127Z,-1.78
2023-03-01T19:36:42.931Z,-1.84
2023-03-01T19:39:13.812Z,-1.90
2023-03-01T19:41:43.494Z,-1.96
2023-03-01T19:44:12.757Z,-2.02
2023-03-01T19:46:41.090Z,-2.03
2023-03-01T19:49:10.008Z,-2.06
2023-03-01T19:51:39.619Z,-2.05
2023-03-01T19:54:10.014Z,-2.03
2023-03-01T19:56:39.341Z,-2.06
2023-03-01T19:59:07.935Z,-2.12
2023-03-01T20:01:37.913Z,-2.19
2023-03-01T20:04:06.815Z,-2.21
2023-03-01T20:06:36.522Z,-2.24
2023-03-01T20:09:19.111Z,-2.27
2023-03-01T20:11:49.909Z,-2.29
2023-03-01T20:14:18.763Z,-2.29
2023-03-01T20:16:47.031Z,-2.30
2023-03-01T20:19:15.427Z,-2.36
2023-03-01T20:21:43.783Z,-2.40
2023-03-01T20:24:12.063Z,-2.44
2023-03-01T20:26:41.358Z,-2.48
2023-03-01T20:29:09.941Z,-2.52
2023-03-01T20:31:39.976Z,-2.56
2023-03-01T20:34:08.536Z,-2.58
2023-03-01T20:36:39.004Z,-2.61
2023-03-01T20:39:07.955Z,-2.65
2023-03-01T20:41:36.125Z,-2.68
2023-03-01T20:44:06.780Z,-2.72
2023-03-01T20:46:36.298Z,-2.74
2023-03-01T20:49:05.889Z,-2.73
2023-03-01T20:51:34.138Z,-2.75
2023-03-01T20:54:02.724Z,-2.75
2023-03-01T20:56:31.341Z,-2.75
2023-03-01T20:59:08.561Z,-2.74
2023-03-01T21:01:38.401Z,-2.75
2023-03-01T21:04:07.087Z,-2.79
2023-03-01T21:06:35.751Z,-2.81
2023-03-01T21:09:04.346Z,-2.84
2023-03-01T21:11:32.522Z,-2.87
2023-03-01T21:14:01.005Z,-2.90
2023-03-01T21:16:29.399Z,-2.93
2023-03-01T21:19:01.750Z,-2.97
2023-03-01T21:21:29.922Z,-3.01
2023-03-01T21:23:58.098Z,-3.03
2023-03-01T21:26:27.596Z,-3.03
2023-03-01T21:29:02.811Z,-3.06
2023-03-01T21:31:34.986Z,-3.07
2023-03-01T21:34:06.093Z,-3.04
2023-03-01T21:36:36.247Z,-3.04
2023-03-01T21:39:06.088Z,-3.04
2023-03-01T21:41:36.849Z,-3.03
2023-03-01T21:44:07.403Z,-3.02
2023-03-01T21:46:38.384Z,-3.00
2023-03-01T21:49:07.791Z,-3.00
2023-03-01T21:51:36.788Z,-3.04
2023-03-01T21:54:05.922Z,-3.05
2023-03-01T21:56:39.181Z,-3.04
2023-03-01T21:59:09.354Z,-3.05
2023-03-01T22:01:37.541Z,-3.07
2023-03-01T22:04:06.017Z,-3.13
2023-03-01T22:06:40.682Z,-3.16
2023-03-01T22:09:09.437Z,-3.21
2023-03-01T22:11:39.752Z,-3.23
2023-03-01T22:14:08.431Z,-3.25
2023-03-01T22:16:37.968Z,-3.26
2023-03-01T22:19:07.643Z,-3.27
2023-03-01T22:21:39.416Z,-3.29
2023-03-01T22:24:08.815Z,-3.28
2023-03-01T22:26:40.477Z,-3.32
2023-03-01T22:29:14.045Z,-3.35
2023-03-01T22:31:42.865Z,-3.36
2023-03-01T22:34:11.734Z,-3.35
2023-03-01T22:36:40.027Z,-3.34
2023-03-01T22:39:08.392Z,-3.35
2023-03-01T22:41:43.395Z,-3.36
2023-03-01T22:44:12.697Z,-3.37
2023-03-01T22:46:41.720Z,-3.38
2023-03-01T22:49:10.410Z,-3.39
2023-03-01T22:51:40.415Z,-3.40
2023-03-01T22:54:09.820Z,-3.43
2023-03-01T22:56:40.060Z,-3.45
2023-03-01T22:59:10.715Z,-3.49
2023-03-01T23:01:39.657Z,-3.49
2023-03-01T23:04:08.563Z,-3.52
2023-03-01T23:06:50.394Z,-3.56
2023-03-01T23:09:21.177Z,-3.58
2023-03-01T23:11:50.781Z,-3.57
2023-03-01T23:14:19.867Z,-3.57
2023-03-01T23:16:49.433Z,-3.56
2023-03-01T23:19:18.262Z,-3.53
2023-03-01T23:21:50.319Z,-3.49
2023-03-01T23:24:20.649Z,-3.46
2023-03-01T23:26:59.160Z,-3.47
2023-03-01T23:29:27.434Z,-3.45
2023-03-01T23:31:57.752Z,-3.36
2023-03-01T23:34:26.670Z,-3.31
2023-03-01T23:36:55.634Z,-3.31
2023-03-01T23:39:23.715Z,-3.34
2023-03-01T23:41:51.983Z,-3.39
2023-03-01T23:44:21.088Z,-3.46
2023-03-01T23:46:50.164Z,-3.51
2023-03-01T23:49:20.569Z,-3.55
2023-03-01T23:51:49.074Z,-3.58
2023-03-01T23:54:19.612Z,-3.61
2023-03-01T23:56:47.975Z,-3.65
2023-03-01T23:59:19.088Z,-3.62
